sensor_id;sensor_type;location;lat;lon;timestamp;pressure;altitude;pressure_sealevel;temperature
71081;BMP180;58740;50.672;18.690;2022-10-31T00:01:35;99334.40;;;11.70
71081;BMP180;58740;50.672;18.690;2022-10-31T00:04:05;99340.20;;;11.70
71081;BMP180;58740;50.672;18.690;2022-10-31T00:06:33;99336.40;;;11.70
71081;BMP180;58740;50.672;18.690;2022-10-31T00:09:04;99335.60;;;11.70
71081;BMP180;58740;50.672;18.690;2022-10-31T00:11:32;99338.80;;;11.70
71081;BMP180;58740;50.672;18.690;2022-10-31T00:14:00;99337.80;;;11.64
71081;BMP180;58740;50.672;18.690;2022-10-31T00:16:29;99339.60;;;11.60
71081;BMP180;58740;50.672;18.690;2022-10-31T00:19:01;99341.20;;;11.62
71081;BMP180;58740;50.672;18.690;2022-10-31T00:21:30;99342.80;;;11.60
71081;BMP180;58740;50.672;18.690;2022-10-31T00:24:00;99342.40;;;11.60
71081;BMP180;58740;50.672;18.690;2022-10-31T00:26:30;99340.20;;;11.60
71081;BMP180;58740;50.672;18.690;2022-10-31T00:28:59;99340.80;;;11.60
71081;BMP180;58740;50.672;18.690;2022-10-31T00:31:28;99342.80;;;11.50
71081;BMP180;58740;50.672;18.690;2022-10-31T00:33:57;99338.20;;;11.50
71081;BMP180;58740;50.672;18.690;2022-10-31T00:36:25;99341.00;;;11.40
71081;BMP180;58740;50.672;18.690;2022-10-31T00:38:53;99338.80;;;11.40
71081;BMP180;58740;50.672;18.690;2022-10-31T00:41:20;99335.40;;;11.40
71081;BMP180;58740;50.672;18.690;2022-10-31T00:43:48;99340.60;;;11.40
71081;BMP180;58740;50.672;18.690;2022-10-31T00:46:16;99334.80;;;11.30
71081;BMP180;58740;50.672;18.690;2022-10-31T00:48:43;99339.20;;;11.30
71081;BMP180;58740;50.672;18.690;2022-10-31T00:51:11;99339.20;;;11.30
71081;BMP180;58740;50.672;18.690;2022-10-31T00:53:39;99336.80;;;11.20
71081;BMP180;58740;50.672;18.690;2022-10-31T00:56:06;99342.40;;;11.20
71081;BMP180;58740;50.672;18.690;2022-10-31T00:58:34;99343.40;;;11.16
71081;BMP180;58740;50.672;18.690;2022-10-31T01:01:02;99348.00;;;11.14
71081;BMP180;58740;50.672;18.690;2022-10-31T01:03:32;99343.00;;;11.10
71081;BMP180;58740;50.672;18.690;2022-10-31T01:06:06;99346.00;;;11.10
71081;BMP180;58740;50.672;18.690;2022-10-31T01:08:36;99343.60;;;11.10
71081;BMP180;58740;50.672;18.690;2022-10-31T01:11:13;99342.80;;;11.10
71081;BMP180;58740;50.672;18.690;2022-10-31T01:13:42;99340.60;;;11.00
71081;BMP180;58740;50.672;18.690;2022-10-31T01:16:14;99341.00;;;11.00
71081;BMP180;58740;50.672;18.690;2022-10-31T01:18:43;99347.00;;;11.00
71081;BMP180;58740;50.672;18.690;2022-10-31T01:23:46;99345.20;;;11.00
71081;BMP180;58740;50.672;18.690;2022-10-31T01:26:17;99345.60;;;11.00
71081;BMP180;58740;50.672;18.690;2022-10-31T01:28:49;99345.20;;;11.00
71081;BMP180;58740;50.672;18.690;2022-10-31T01:31:20;99343.80;;;10.90
71081;BMP180;58740;50.672;18.690;2022-10-31T01:33:48;99341.80;;;10.90
71081;BMP180;58740;50.672;18.690;2022-10-31T01:36:36;99340.00;;;10.90
71081;BMP180;58740;50.672;18.690;2022-10-31T01:39:11;99347.00;;;10.90
71081;BMP180;58740;50.672;18.690;2022-10-31T01:41:43;99350.40;;;10.96
71081;BMP180;58740;50.672;18.690;2022-10-31T01:46:57;99342.60;;;11.00
71081;BMP180;58740;50.672;18.690;2022-10-31T01:52:24;99345.80;;;11.00
71081;BMP180;58740;50.672;18.690;2022-10-31T01:55:01;99342.80;;;11.00
71081;BMP180;58740;50.672;18.690;2022-10-31T01:57:33;99343.60;;;10.94
71081;BMP180;58740;50.672;18.690;2022-10-31T02:00:07;99346.80;;;10.90
71081;BMP180;58740;50.672;18.690;2022-10-31T02:02:36;99343.80;;;10.90
71081;BMP180;58740;50.672;18.690;2022-10-31T02:05:09;99343.60;;;10.90
71081;BMP180;58740;50.672;18.690;2022-10-31T02:08:32;99339.40;;;10.80
71081;BMP180;58740;50.672;18.690;2022-10-31T02:11:01;99343.60;;;10.80
71081;BMP180;58740;50.672;18.690;2022-10-31T02:13:29;99341.40;;;10.70
71081;BMP180;58740;50.672;18.690;2022-10-31T02:15:58;99342.20;;;10.70
71081;BMP180;58740;50.672;18.690;2022-10-31T02:18:29;99342.80;;;10.70
71081;BMP180;58740;50.672;18.690;2022-10-31T02:21:19;99336.20;;;10.70
71081;BMP180;58740;50.672;18.690;2022-10-31T02:30:08;99340.40;;;10.64
71081;BMP180;58740;50.672;18.690;2022-10-31T02:33:25;99341.00;;;10.60
71081;BMP180;58740;50.672;18.690;2022-10-31T02:42:51;99342.20;;;10.50
71081;BMP180;58740;50.672;18.690;2022-10-31T02:45:06;99343.40;;;10.50
71081;BMP180;58740;50.672;18.690;2022-10-31T02:47:37;99339.60;;;10.44
71081;BMP180;58740;50.672;18.690;2022-10-31T02:50:23;99344.60;;;10.44
71081;BMP180;58740;50.672;18.690;2022-10-31T02:52:53;99345.60;;;10.44
71081;BMP180;58740;50.672;18.690;2022-10-31T02:55:51;99346.20;;;10.40
71081;BMP180;58740;50.672;18.690;2022-10-31T02:58:25;99348.60;;;10.40
71081;BMP180;58740;50.672;18.690;2022-10-31T03:04:30;99351.20;;;10.40
71081;BMP180;58740;50.672;18.690;2022-10-31T03:09:57;99352.60;;;10.36
71081;BMP180;58740;50.672;18.690;2022-10-31T03:12:38;99355.40;;;10.30
71081;BMP180;58740;50.672;18.690;2022-10-31T03:20:43;99367.20;;;10.30
71081;BMP180;58740;50.672;18.690;2022-10-31T03:23:16;99367.60;;;10.30
71081;BMP180;58740;50.672;18.690;2022-10-31T03:25:46;99361.00;;;10.26
71081;BMP180;58740;50.672;18.690;2022-10-31T03:28:23;99368.40;;;10.20
71081;BMP180;58740;50.672;18.690;2022-10-31T03:30:53;99365.60;;;10.20
71081;BMP180;58740;50.672;18.690;2022-10-31T03:33:28;99365.40;;;10.22
71081;BMP180;58740;50.672;18.690;2022-10-31T03:36:02;99363.40;;;10.20
71081;BMP180;58740;50.672;18.690;2022-10-31T03:38:33;99370.60;;;10.20
71081;BMP180;58740;50.672;18.690;2022-10-31T03:41:05;99370.80;;;10.10
71081;BMP180;58740;50.672;18.690;2022-10-31T03:43:42;99370.40;;;10.10
71081;BMP180;58740;50.672;18.690;2022-10-31T03:46:11;99368.20;;;10.10
71081;BMP180;58740;50.672;18.690;2022-10-31T03:48:39;99370.60;;;10.10
71081;BMP180;58740;50.672;18.690;2022-10-31T03:51:22;99374.60;;;10.08
71081;BMP180;58740;50.672;18.690;2022-10-31T03:54:05;99381.80;;;10.00
71081;BMP180;58740;50.672;18.690;2022-10-31T03:56:43;99386.00;;;10.00
71081;BMP180;58740;50.672;18.690;2022-10-31T03:59:26;99379.80;;;10.00
71081;BMP180;58740;50.672;18.690;2022-10-31T04:02:07;99383.00;;;10.00
71081;BMP180;58740;50.672;18.690;2022-10-31T04:04:39;99385.80;;;9.90
71081;BMP180;58740;50.672;18.690;2022-10-31T04:07:10;99387.20;;;9.90
71081;BMP180;58740;50.672;18.690;2022-10-31T04:09:44;99390.60;;;9.90
71081;BMP180;58740;50.672;18.690;2022-10-31T04:12:15;99393.20;;;9.90
71081;BMP180;58740;50.672;18.690;2022-10-31T04:14:47;99394.80;;;9.90
71081;BMP180;58740;50.672;18.690;2022-10-31T04:17:20;99393.60;;;9.92
71081;BMP180;58740;50.672;18.690;2022-10-31T04:19:49;99390.60;;;9.96
71081;BMP180;58740;50.672;18.690;2022-10-31T04:22:16;99392.00;;;10.00
71081;BMP180;58740;50.672;18.690;2022-10-31T04:24:44;99390.00;;;9.90
71081;BMP180;58740;50.672;18.690;2022-10-31T04:27:11;99393.60;;;9.90
71081;BMP180;58740;50.672;18.690;2022-10-31T04:29:39;99396.80;;;9.90
71081;BMP180;58740;50.672;18.690;2022-10-31T04:32:07;99400.00;;;9.86
71081;BMP180;58740;50.672;18.690;2022-10-31T04:34:34;99402.80;;;9.80
71081;BMP180;58740;50.672;18.690;2022-10-31T04:37:02;99394.60;;;9.80
71081;BMP180;58740;50.672;18.690;2022-10-31T04:39:29;99396.00;;;9.80
71081;BMP180;58740;50.672;18.690;2022-10-31T04:41:57;99393.40;;;9.80
71081;BMP180;58740;50.672;18.690;2022-10-31T04:44:24;99398.00;;;9.80
71081;BMP180;58740;50.672;18.690;2022-10-31T04:46:52;99403.20;;;9.80
71081;BMP180;58740;50.672;18.690;2022-10-31T04:49:20;99401.00;;;9.80
71081;BMP180;58740;50.672;18.690;2022-10-31T04:51:48;99400.20;;;9.80
71081;BMP180;58740;50.672;18.690;2022-10-31T04:54:15;99406.20;;;9.80
71081;BMP180;58740;50.672;18.690;2022-10-31T04:56:43;99400.20;;;9.80
71081;BMP180;58740;50.672;18.690;2022-10-31T04:59:11;99404.20;;;9.80
71081;BMP180;58740;50.672;18.690;2022-10-31T05:01:38;99405.60;;;9.80
71081;BMP180;58740;50.672;18.690;2022-10-31T05:04:06;99407.40;;;9.80
71081;BMP180;58740;50.672;18.690;2022-10-31T05:06:34;99409.00;;;9.80
71081;BMP180;58740;50.672;18.690;2022-10-31T05:09:02;99405.80;;;9.70
71081;BMP180;58740;50.672;18.690;2022-10-31T05:11:29;99401.60;;;9.70
71081;BMP180;58740;50.672;18.690;2022-10-31T05:13:57;99404.80;;;9.60
71081;BMP180;58740;50.672;18.690;2022-10-31T05:16:24;99405.80;;;9.60
71081;BMP180;58740;50.672;18.690;2022-10-31T05:18:52;99409.00;;;9.60
71081;BMP180;58740;50.672;18.690;2022-10-31T05:21:20;99411.60;;;9.60
71081;BMP180;58740;50.672;18.690;2022-10-31T05:23:47;99412.60;;;9.60
71081;BMP180;58740;50.672;18.690;2022-10-31T05:26:16;99414.00;;;9.60
71081;BMP180;58740;50.672;18.690;2022-10-31T05:28:43;99409.00;;;9.52
71081;BMP180;58740;50.672;18.690;2022-10-31T05:31:11;99412.20;;;9.50
71081;BMP180;58740;50.672;18.690;2022-10-31T05:33:39;99411.60;;;9.50
71081;BMP180;58740;50.672;18.690;2022-10-31T05:36:07;99416.80;;;9.46
71081;BMP180;58740;50.672;18.690;2022-10-31T05:38:34;99415.20;;;9.42
71081;BMP180;58740;50.672;18.690;2022-10-31T05:41:02;99413.20;;;9.44
71081;BMP180;58740;50.672;18.690;2022-10-31T05:43:30;99417.00;;;9.50
71081;BMP180;58740;50.672;18.690;2022-10-31T05:45:57;99420.60;;;9.50
71081;BMP180;58740;50.672;18.690;2022-10-31T05:48:25;99418.00;;;9.50
71081;BMP180;58740;50.672;18.690;2022-10-31T05:50:53;99423.00;;;9.50
71081;BMP180;58740;50.672;18.690;2022-10-31T05:53:20;99424.60;;;9.50
71081;BMP180;58740;50.672;18.690;2022-10-31T05:55:48;99424.00;;;9.50
71081;BMP180;58740;50.672;18.690;2022-10-31T05:58:16;99421.80;;;9.46
71081;BMP180;58740;50.672;18.690;2022-10-31T06:00:43;99425.20;;;9.40
71081;BMP180;58740;50.672;18.690;2022-10-31T06:03:11;99422.00;;;9.48
71081;BMP180;58740;50.672;18.690;2022-10-31T06:05:38;99422.20;;;9.50
71081;BMP180;58740;50.672;18.690;2022-10-31T06:08:06;99423.20;;;9.50
71081;BMP180;58740;50.672;18.690;2022-10-31T06:10:33;99430.00;;;9.50
71081;BMP180;58740;50.672;18.690;2022-10-31T06:13:01;99430.40;;;9.50
71081;BMP180;58740;50.672;18.690;2022-10-31T06:15:29;99428.20;;;9.50
71081;BMP180;58740;50.672;18.690;2022-10-31T06:18:02;99432.60;;;9.50
71081;BMP180;58740;50.672;18.690;2022-10-31T06:20:32;99429.40;;;9.60
71081;BMP180;58740;50.672;18.690;2022-10-31T06:23:00;99436.40;;;9.60
71081;BMP180;58740;50.672;18.690;2022-10-31T06:25:29;99433.00;;;9.70
71081;BMP180;58740;50.672;18.690;2022-10-31T06:27:57;99435.20;;;9.70
71081;BMP180;58740;50.672;18.690;2022-10-31T06:30:25;99441.40;;;9.80
71081;BMP180;58740;50.672;18.690;2022-10-31T06:32:52;99451.40;;;9.80
71081;BMP180;58740;50.672;18.690;2022-10-31T06:35:21;99449.60;;;9.90
71081;BMP180;58740;50.672;18.690;2022-10-31T06:37:53;99457.60;;;9.96
71081;BMP180;58740;50.672;18.690;2022-10-31T06:40:21;99452.80;;;10.00
71081;BMP180;58740;50.672;18.690;2022-10-31T06:43:00;99453.60;;;10.10
71081;BMP180;58740;50.672;18.690;2022-10-31T06:45:28;99458.40;;;10.20
71081;BMP180;58740;50.672;18.690;2022-10-31T06:47:56;99465.20;;;10.20
71081;BMP180;58740;50.672;18.690;2022-10-31T06:50:44;99464.60;;;10.30
71081;BMP180;58740;50.672;18.690;2022-10-31T06:53:13;99466.20;;;10.40
71081;BMP180;58740;50.672;18.690;2022-10-31T06:55:42;99461.60;;;10.40
71081;BMP180;58740;50.672;18.690;2022-10-31T06:58:10;99471.20;;;10.50
71081;BMP180;58740;50.672;18.690;2022-10-31T07:00:39;99476.00;;;10.60
71081;BMP180;58740;50.672;18.690;2022-10-31T07:03:12;99471.60;;;10.70
71081;BMP180;58740;50.672;18.690;2022-10-31T07:05:40;99473.80;;;10.80
71081;BMP180;58740;50.672;18.690;2022-10-31T07:08:11;99470.40;;;10.90
71081;BMP180;58740;50.672;18.690;2022-10-31T07:10:41;99470.40;;;11.00
71081;BMP180;58740;50.672;18.690;2022-10-31T07:13:13;99469.40;;;11.10
71081;BMP180;58740;50.672;18.690;2022-10-31T07:15:43;99472.60;;;11.20
71081;BMP180;58740;50.672;18.690;2022-10-31T07:18:12;99469.80;;;11.26
71081;BMP180;58740;50.672;18.690;2022-10-31T07:20:39;99470.20;;;11.40
71081;BMP180;58740;50.672;18.690;2022-10-31T07:23:10;99468.80;;;11.40
71081;BMP180;58740;50.672;18.690;2022-10-31T07:25:41;99474.00;;;11.50
71081;BMP180;58740;50.672;18.690;2022-10-31T07:28:10;99475.40;;;11.60
71081;BMP180;58740;50.672;18.690;2022-10-31T07:30:38;99479.40;;;11.70
71081;BMP180;58740;50.672;18.690;2022-10-31T07:33:06;99477.20;;;11.80
71081;BMP180;58740;50.672;18.690;2022-10-31T07:35:34;99476.80;;;11.90
71081;BMP180;58740;50.672;18.690;2022-10-31T07:38:10;99479.80;;;12.00
71081;BMP180;58740;50.672;18.690;2022-10-31T07:40:40;99482.80;;;12.10
71081;BMP180;58740;50.672;18.690;2022-10-31T07:43:11;99486.20;;;12.16
71081;BMP180;58740;50.672;18.690;2022-10-31T07:45:41;99485.20;;;12.20
71081;BMP180;58740;50.672;18.690;2022-10-31T07:48:09;99484.40;;;12.30
71081;BMP180;58740;50.672;18.690;2022-10-31T07:50:36;99485.20;;;12.40
71081;BMP180;58740;50.672;18.690;2022-10-31T07:53:10;99483.80;;;12.50
71081;BMP180;58740;50.672;18.690;2022-10-31T07:55:39;99486.60;;;12.50
71081;BMP180;58740;50.672;18.690;2022-10-31T07:58:10;99481.00;;;12.62
71081;BMP180;58740;50.672;18.690;2022-10-31T08:00:41;99481.80;;;12.70
71081;BMP180;58740;50.672;18.690;2022-10-31T08:03:13;99482.00;;;12.80
71081;BMP180;58740;50.672;18.690;2022-10-31T08:05:41;99483.00;;;12.90
71081;BMP180;58740;50.672;18.690;2022-10-31T08:08:09;99483.80;;;13.00
71081;BMP180;58740;50.672;18.690;2022-10-31T08:10:36;99490.60;;;13.10
71081;BMP180;58740;50.672;18.690;2022-10-31T08:13:13;99482.60;;;13.20
71081;BMP180;58740;50.672;18.690;2022-10-31T08:15:41;99487.60;;;13.20
71081;BMP180;58740;50.672;18.690;2022-10-31T08:18:13;99493.40;;;13.30
71081;BMP180;58740;50.672;18.690;2022-10-31T08:20:42;99490.60;;;13.32
71081;BMP180;58740;50.672;18.690;2022-10-31T08:23:11;99496.80;;;13.40
71081;BMP180;58740;50.672;18.690;2022-10-31T08:25:40;99500.20;;;13.40
71081;BMP180;58740;50.672;18.690;2022-10-31T08:28:10;99496.80;;;13.50
71081;BMP180;58740;50.672;18.690;2022-10-31T08:30:40;99497.20;;;13.60
71081;BMP180;58740;50.672;18.690;2022-10-31T08:33:15;99499.20;;;13.70
71081;BMP180;58740;50.672;18.690;2022-10-31T08:35:44;99498.20;;;13.80
71081;BMP180;58740;50.672;18.690;2022-10-31T08:38:13;99497.20;;;13.90
71081;BMP180;58740;50.672;18.690;2022-10-31T08:40:41;99496.60;;;13.90
71081;BMP180;58740;50.672;18.690;2022-10-31T08:43:15;99503.80;;;14.00
71081;BMP180;58740;50.672;18.690;2022-10-31T08:45:47;99502.80;;;14.12
71081;BMP180;58740;50.672;18.690;2022-10-31T08:48:17;99497.20;;;14.22
71081;BMP180;58740;50.672;18.690;2022-10-31T08:50:45;99496.60;;;14.30
71081;BMP180;58740;50.672;18.690;2022-10-31T08:53:19;99496.20;;;14.40
71081;BMP180;58740;50.672;18.690;2022-10-31T08:55:47;99492.40;;;14.46
71081;BMP180;58740;50.672;18.690;2022-10-31T08:58:18;99496.20;;;14.50
71081;BMP180;58740;50.672;18.690;2022-10-31T09:00:49;99492.20;;;14.60
71081;BMP180;58740;50.672;18.690;2022-10-31T09:03:22;99496.40;;;14.60
71081;BMP180;58740;50.672;18.690;2022-10-31T09:05:55;99486.40;;;14.70
71081;BMP180;58740;50.672;18.690;2022-10-31T09:08:23;99491.20;;;14.78
71081;BMP180;58740;50.672;18.690;2022-10-31T09:10:52;99490.60;;;14.80
71081;BMP180;58740;50.672;18.690;2022-10-31T09:13:20;99497.40;;;14.80
71081;BMP180;58740;50.672;18.690;2022-10-31T09:15:52;99497.00;;;14.90
71081;BMP180;58740;50.672;18.690;2022-10-31T09:18:22;99499.40;;;14.98
71081;BMP180;58740;50.672;18.690;2022-10-31T09:20:50;99500.60;;;15.00
71081;BMP180;58740;50.672;18.690;2022-10-31T09:23:21;99492.40;;;15.10
71081;BMP180;58740;50.672;18.690;2022-10-31T09:25:52;99500.00;;;15.12
71081;BMP180;58740;50.672;18.690;2022-10-31T09:28:23;99504.00;;;15.20
71081;BMP180;58740;50.672;18.690;2022-10-31T09:30:53;99503.20;;;15.30
71081;BMP180;58740;50.672;18.690;2022-10-31T09:33:21;99503.20;;;15.30
71081;BMP180;58740;50.672;18.690;2022-10-31T09:35:49;99502.20;;;15.40
71081;BMP180;58740;50.672;18.690;2022-10-31T09:38:20;99498.00;;;15.50
71081;BMP180;58740;50.672;18.690;2022-10-31T09:44:22;99502.60;;;15.60
71081;BMP180;58740;50.672;18.690;2022-10-31T09:47:39;99502.60;;;15.70
71081;BMP180;58740;50.672;18.690;2022-10-31T09:50:18;99507.80;;;15.70
71081;BMP180;58740;50.672;18.690;2022-10-31T09:53:04;99498.80;;;15.80
71081;BMP180;58740;50.672;18.690;2022-10-31T09:55:40;99499.80;;;15.90
71081;BMP180;58740;50.672;18.690;2022-10-31T09:58:26;99497.20;;;15.90
71081;BMP180;58740;50.672;18.690;2022-10-31T10:01:00;99494.00;;;16.00
71081;BMP180;58740;50.672;18.690;2022-10-31T10:03:44;99498.40;;;16.10
71081;BMP180;58740;50.672;18.690;2022-10-31T10:06:22;99497.20;;;16.10
71081;BMP180;58740;50.672;18.690;2022-10-31T10:08:50;99495.80;;;16.10
71081;BMP180;58740;50.672;18.690;2022-10-31T10:11:37;99496.20;;;16.20
71081;BMP180;58740;50.672;18.690;2022-10-31T10:17:51;99494.80;;;16.30
71081;BMP180;58740;50.672;18.690;2022-10-31T10:26:31;99490.40;;;16.40
71081;BMP180;58740;50.672;18.690;2022-10-31T10:30:03;99487.60;;;16.40
71081;BMP180;58740;50.672;18.690;2022-10-31T10:32:57;99484.20;;;16.50
71081;BMP180;58740;50.672;18.690;2022-10-31T10:35:32;99487.00;;;16.50
71081;BMP180;58740;50.672;18.690;2022-10-31T10:38:23;99481.00;;;16.50
71081;BMP180;58740;50.672;18.690;2022-10-31T10:40:54;99482.20;;;16.60
71081;BMP180;58740;50.672;18.690;2022-10-31T10:43:35;99476.60;;;16.60
71081;BMP180;58740;50.672;18.690;2022-10-31T10:46:41;99471.80;;;16.68
71081;BMP180;58740;50.672;18.690;2022-10-31T10:49:45;99467.40;;;16.70
71081;BMP180;58740;50.672;18.690;2022-10-31T10:52:47;99463.60;;;16.70
71081;BMP180;58740;50.672;18.690;2022-10-31T10:58:10;99464.60;;;16.74
71081;BMP180;58740;50.672;18.690;2022-10-31T11:00:44;99461.80;;;16.80
71081;BMP180;58740;50.672;18.690;2022-10-31T11:03:16;99463.20;;;16.80
71081;BMP180;58740;50.672;18.690;2022-10-31T11:05:57;99460.00;;;16.80
71081;BMP180;58740;50.672;18.690;2022-10-31T11:08:34;99464.40;;;16.88
71081;BMP180;58740;50.672;18.690;2022-10-31T11:13:36;99465.40;;;16.90
71081;BMP180;58740;50.672;18.690;2022-10-31T11:16:14;99469.80;;;16.90
71081;BMP180;58740;50.672;18.690;2022-10-31T11:18:46;99467.60;;;16.90
71081;BMP180;58740;50.672;18.690;2022-10-31T11:21:28;99463.20;;;17.00
71081;BMP180;58740;50.672;18.690;2022-10-31T11:24:24;99466.80;;;17.00
71081;BMP180;58740;50.672;18.690;2022-10-31T11:27:23;99460.80;;;17.10
71081;BMP180;58740;50.672;18.690;2022-10-31T11:29:51;99463.40;;;17.10
71081;BMP180;58740;50.672;18.690;2022-10-31T11:32:27;99458.40;;;17.10
71081;BMP180;58740;50.672;18.690;2022-10-31T11:35:00;99458.60;;;17.20
71081;BMP180;58740;50.672;18.690;2022-10-31T11:37:35;99457.40;;;17.20
71081;BMP180;58740;50.672;18.690;2022-10-31T11:40:18;99455.60;;;17.22
71081;BMP180;58740;50.672;18.690;2022-10-31T11:42:49;99454.60;;;17.30
71081;BMP180;58740;50.672;18.690;2022-10-31T11:45:32;99452.60;;;17.30
71081;BMP180;58740;50.672;18.690;2022-10-31T11:48:02;99454.40;;;17.30
71081;BMP180;58740;50.672;18.690;2022-10-31T11:50:50;99452.60;;;17.40
71081;BMP180;58740;50.672;18.690;2022-10-31T11:53:27;99449.00;;;17.40
71081;BMP180;58740;50.672;18.690;2022-10-31T11:56:13;99448.40;;;17.48
71081;BMP180;58740;50.672;18.690;2022-10-31T11:58:42;99451.80;;;17.50
71081;BMP180;58740;50.672;18.690;2022-10-31T12:01:28;99450.40;;;17.50
71081;BMP180;58740;50.672;18.690;2022-10-31T12:04:13;99450.60;;;17.50
71081;BMP180;58740;50.672;18.690;2022-10-31T12:06:43;99445.80;;;17.50
71081;BMP180;58740;50.672;18.690;2022-10-31T12:09:20;99445.40;;;17.50
71081;BMP180;58740;50.672;18.690;2022-10-31T12:15:29;99442.00;;;17.50
71081;BMP180;58740;50.672;18.690;2022-10-31T12:21:44;99436.60;;;17.50
71081;BMP180;58740;50.672;18.690;2022-10-31T12:27:48;99431.00;;;17.58
71081;BMP180;58740;50.672;18.690;2022-10-31T12:34:06;99431.80;;;17.60
71081;BMP180;58740;50.672;18.690;2022-10-31T12:36:53;99429.20;;;17.60
71081;BMP180;58740;50.672;18.690;2022-10-31T12:42:44;99430.60;;;17.60
71081;BMP180;58740;50.672;18.690;2022-10-31T12:48:41;99422.40;;;17.68
71081;BMP180;58740;50.672;18.690;2022-10-31T12:59:47;99421.20;;;17.70
71081;BMP180;58740;50.672;18.690;2022-10-31T13:02:26;99421.00;;;17.70
71081;BMP180;58740;50.672;18.690;2022-10-31T13:05:22;99421.80;;;17.70
71081;BMP180;58740;50.672;18.690;2022-10-31T13:11:38;99429.80;;;17.80
71081;BMP180;58740;50.672;18.690;2022-10-31T13:16:59;99429.40;;;17.80
71081;BMP180;58740;50.672;18.690;2022-10-31T13:19:37;99427.80;;;17.80
71081;BMP180;58740;50.672;18.690;2022-10-31T13:22:14;99424.00;;;17.80
71081;BMP180;58740;50.672;18.690;2022-10-31T13:25:03;99426.60;;;17.78
71081;BMP180;58740;50.672;18.690;2022-10-31T13:27:54;99423.60;;;17.80
71081;BMP180;58740;50.672;18.690;2022-10-31T13:30:32;99427.00;;;17.80
71081;BMP180;58740;50.672;18.690;2022-10-31T13:33:17;99428.80;;;17.80
71081;BMP180;58740;50.672;18.690;2022-10-31T13:39:33;99427.60;;;17.80
71081;BMP180;58740;50.672;18.690;2022-10-31T13:42:23;99430.40;;;17.80
71081;BMP180;58740;50.672;18.690;2022-10-31T13:44:53;99432.40;;;17.80
71081;BMP180;58740;50.672;18.690;2022-10-31T13:47:29;99431.40;;;17.80
71081;BMP180;58740;50.672;18.690;2022-10-31T13:50:21;99428.80;;;17.78
71081;BMP180;58740;50.672;18.690;2022-10-31T13:52:49;99427.00;;;17.74
71081;BMP180;58740;50.672;18.690;2022-10-31T13:55:39;99422.20;;;17.76
71081;BMP180;58740;50.672;18.690;2022-10-31T13:58:27;99422.00;;;17.80
71081;BMP180;58740;50.672;18.690;2022-10-31T14:03:41;99422.40;;;17.80
71081;BMP180;58740;50.672;18.690;2022-10-31T14:07:04;99420.60;;;17.78
71081;BMP180;58740;50.672;18.690;2022-10-31T14:12:41;99417.60;;;17.70
71081;BMP180;58740;50.672;18.690;2022-10-31T14:15:19;99420.00;;;17.62
71081;BMP180;58740;50.672;18.690;2022-10-31T14:17:54;99419.20;;;17.60
71081;BMP180;58740;50.672;18.690;2022-10-31T14:20:40;99414.40;;;17.60
71081;BMP180;58740;50.672;18.690;2022-10-31T14:26:31;99416.40;;;17.60
71081;BMP180;58740;50.672;18.690;2022-10-31T14:34:43;99407.40;;;17.50
71081;BMP180;58740;50.672;18.690;2022-10-31T14:37:52;99404.60;;;17.44
71081;BMP180;58740;50.672;18.690;2022-10-31T14:43:29;99403.00;;;17.40
71081;BMP180;58740;50.672;18.690;2022-10-31T14:46:18;99403.80;;;17.36
71081;BMP180;58740;50.672;18.690;2022-10-31T14:49:17;99406.40;;;17.30
71081;BMP180;58740;50.672;18.690;2022-10-31T14:51:50;99402.00;;;17.30
71081;BMP180;58740;50.672;18.690;2022-10-31T14:54:32;99403.40;;;17.20
71081;BMP180;58740;50.672;18.690;2022-10-31T14:57:32;99397.60;;;17.14
71081;BMP180;58740;50.672;18.690;2022-10-31T15:00:06;99393.80;;;17.10
71081;BMP180;58740;50.672;18.690;2022-10-31T15:03:10;99391.80;;;17.08
71081;BMP180;58740;50.672;18.690;2022-10-31T15:06:00;99389.20;;;17.00
71081;BMP180;58740;50.672;18.690;2022-10-31T15:08:40;99385.80;;;17.00
71081;BMP180;58740;50.672;18.690;2022-10-31T15:11:17;99387.60;;;16.90
71081;BMP180;58740;50.672;18.690;2022-10-31T15:13:54;99389.60;;;16.90
71081;BMP180;58740;50.672;18.690;2022-10-31T15:16:30;99386.00;;;16.80
71081;BMP180;58740;50.672;18.690;2022-10-31T15:19:07;99388.60;;;16.76
71081;BMP180;58740;50.672;18.690;2022-10-31T15:21:44;99383.00;;;16.70
71081;BMP180;58740;50.672;18.690;2022-10-31T15:24:15;99387.60;;;16.60
71081;BMP180;58740;50.672;18.690;2022-10-31T15:26:50;99386.60;;;16.60
71081;BMP180;58740;50.672;18.690;2022-10-31T15:29:25;99392.60;;;16.50
71081;BMP180;58740;50.672;18.690;2022-10-31T15:31:57;99391.60;;;16.50
71081;BMP180;58740;50.672;18.690;2022-10-31T15:34:43;99389.80;;;16.40
71081;BMP180;58740;50.672;18.690;2022-10-31T15:37:14;99392.00;;;16.30
71081;BMP180;58740;50.672;18.690;2022-10-31T15:39:44;99395.20;;;16.24
71081;BMP180;58740;50.672;18.690;2022-10-31T15:42:29;99401.60;;;16.20
71081;BMP180;58740;50.672;18.690;2022-10-31T15:45:05;99398.80;;;16.14
71081;BMP180;58740;50.672;18.690;2022-10-31T15:47:55;99395.00;;;16.10
71081;BMP180;58740;50.672;18.690;2022-10-31T15:50:37;99397.20;;;16.00
71081;BMP180;58740;50.672;18.690;2022-10-31T15:53:17;99392.60;;;16.00
71081;BMP180;58740;50.672;18.690;2022-10-31T15:56:10;99395.00;;;15.90
71081;BMP180;58740;50.672;18.690;2022-10-31T15:58:47;99398.40;;;15.80
71081;BMP180;58740;50.672;18.690;2022-10-31T16:01:32;99394.00;;;15.70
71081;BMP180;58740;50.672;18.690;2022-10-31T16:06:40;99393.20;;;15.60
71081;BMP180;58740;50.672;18.690;2022-10-31T16:09:37;99393.60;;;15.50
71081;BMP180;58740;50.672;18.690;2022-10-31T16:12:04;99396.40;;;15.50
71081;BMP180;58740;50.672;18.690;2022-10-31T16:14:38;99401.00;;;15.40
71081;BMP180;58740;50.672;18.690;2022-10-31T16:17:13;99400.80;;;15.38
71081;BMP180;58740;50.672;18.690;2022-10-31T16:20:05;99400.80;;;15.30
71081;BMP180;58740;50.672;18.690;2022-10-31T16:22:37;99401.60;;;15.30
71081;BMP180;58740;50.672;18.690;2022-10-31T16:25:15;99397.80;;;15.20
71081;BMP180;58740;50.672;18.690;2022-10-31T16:28:01;99402.00;;;15.20
71081;BMP180;58740;50.672;18.690;2022-10-31T16:30:43;99401.40;;;15.16
71081;BMP180;58740;50.672;18.690;2022-10-31T16:33:34;99407.20;;;15.10